createdAt,value
2023-02-21T00:00:40.640Z,10.44
2023-02-21T00:05:40.749Z,10.48
2023-02-21T00:10:40.542Z,10.52
2023-02-21T00:15:40.448Z,10.52
2023-02-21T00:20:40.369Z,10.53
2023-02-21T00:25:40.311Z,10.55
2023-02-21T00:30:40.334Z,10.52
2023-02-21T00:35:40.185Z,10.55
2023-02-21T00:40:40.103Z,10.56
2023-02-21T00:45:40.093Z,10.52
2023-02-21T00:50:39.971Z,10.53
2023-02-21T00:55:39.915Z,10.53
2023-02-21T01:00:39.858Z,10.55
2023-02-21T01:05:39.793Z,10.53
2023-02-21T01:10:39.745Z,10.53
2023-02-21T01:15:39.733Z,10.53
2023-02-21T01:20:39.582Z,10.53
2023-02-21T01:25:39.527Z,10.55
2023-02-21T01:30:39.657Z,10.59
2023-02-21T01:35:39.395Z,10.60
2023-02-21T01:40:39.319Z,10.63
2023-02-21T01:45:39.261Z,10.63
2023-02-21T01:50:39.186Z,10.63
2023-02-21T01:55:39.127Z,10.66
2023-02-21T02:00:39.055Z,10.67
2023-02-21T02:05:39.002Z,10.67
2023-02-21T02:10:38.923Z,10.67
2023-02-21T02:15:38.887Z,10.62
2023-02-21T02:20:38.790Z,10.58
2023-02-21T02:25:38.732Z,10.56
2023-02-21T02:30:38.739Z,10.55
2023-02-21T02:35:38.600Z,10.55
2023-02-21T02:40:38.526Z,10.58
2023-02-21T02:45:38.465Z,10.59
2023-02-21T02:50:38.390Z,10.62
2023-02-21T02:55:38.338Z,10.62
2023-02-21T03:00:38.260Z,10.62
2023-02-21T03:05:38.199Z,10.62
2023-02-21T03:10:38.137Z,10.60
2023-02-21T03:15:38.072Z,10.56
2023-02-21T03:20:37.996Z,10.52
2023-02-21T03:25:37.935Z,10.49
2023-02-21T03:30:37.899Z,10.46
2023-02-21T03:35:37.803Z,10.48
2023-02-21T03:40:37.733Z,10.49
2023-02-21T03:45:37.667Z,10.50
2023-02-21T03:50:37.610Z,10.49
2023-02-21T03:55:37.541Z,10.48
2023-02-21T04:00:37.515Z,10.44
2023-02-21T04:05:37.405Z,10.44
2023-02-21T04:10:46.767Z,10.42
2023-02-21T04:15:38.304Z,10.40
2023-02-21T04:20:37.214Z,10.38
2023-02-21T04:25:37.143Z,10.35
2023-02-21T04:30:37.107Z,10.31
2023-02-21T04:35:36.998Z,10.25
2023-02-21T04:40:36.942Z,10.22
2023-02-21T04:45:36.920Z,10.25
2023-02-21T04:50:36.825Z,10.25
2023-02-21T04:55:36.738Z,10.23
2023-02-21T05:00:36.678Z,10.23
2023-02-21T05:05:36.603Z,10.23
2023-02-21T05:10:45.190Z,10.25
2023-02-21T05:15:37.504Z,10.23
2023-02-21T05:20:36.412Z,10.23
2023-02-21T05:25:36.340Z,10.25
2023-02-21T05:30:36.392Z,10.25
2023-02-21T05:35:36.219Z,10.23
2023-02-21T05:40:36.159Z,10.23
2023-02-21T05:45:36.088Z,10.25
2023-02-21T05:50:36.015Z,10.25
2023-02-21T05:55:35.944Z,10.26
2023-02-21T06:00:35.890Z,10.31
2023-02-21T06:05:35.822Z,10.31
2023-02-21T06:10:35.750Z,10.33
2023-02-21T06:15:35.737Z,10.33
2023-02-21T06:20:35.625Z,10.35
2023-02-21T06:25:35.547Z,10.38
2023-02-21T06:30:35.666Z,10.42
2023-02-21T06:35:35.416Z,10.46
2023-02-21T06:40:35.361Z,10.48
2023-02-21T06:45:35.289Z,10.50
2023-02-21T06:50:35.232Z,10.56
2023-02-21T06:55:35.160Z,10.67
2023-02-21T07:00:35.105Z,10.73
2023-02-21T07:05:35.032Z,10.78
2023-02-21T07:10:34.994Z,10.80
2023-02-21T07:15:34.913Z,10.78
2023-02-21T07:20:34.838Z,10.85
2023-02-21T07:25:34.764Z,11.45
2023-02-21T07:30:34.820Z,11.35
2023-02-21T07:35:34.636Z,11.14
2023-02-21T07:40:34.574Z,11.04
2023-02-21T07:45:34.498Z,10.99
2023-02-21T07:50:34.444Z,10.95
2023-02-21T07:55:34.370Z,10.95
2023-02-21T08:00:34.312Z,11.06
2023-02-21T08:05:34.237Z,11.13
2023-02-21T08:10:34.180Z,11.23
2023-02-21T08:15:34.103Z,11.68
2023-02-21T08:20:34.043Z,11.94
2023-02-21T08:25:33.967Z,12.05
2023-02-21T08:30:33.988Z,12.35
2023-02-21T08:35:33.842Z,12.49
2023-02-21T08:40:33.786Z,12.52
2023-02-21T08:45:33.707Z,12.46
2023-02-21T08:50:33.654Z,12.45
2023-02-21T08:55:33.579Z,12.39
2023-02-21T09:00:33.519Z,12.39
2023-02-21T09:05:33.448Z,12.41
2023-02-21T09:10:33.422Z,12.42
2023-02-21T09:15:33.332Z,12.68
2023-02-21T09:20:33.259Z,13.01
2023-02-21T09:25:33.185Z,13.19
2023-02-21T09:30:33.248Z,13.85
2023-02-21T09:35:33.054Z,14.63
2023-02-21T09:40:33.001Z,15.62
2023-02-21T09:45:32.962Z,15.36
2023-02-21T09:50:32.892Z,14.59
2023-02-21T09:55:32.808Z,14.47
2023-02-21T10:00:32.737Z,14.78
2023-02-21T10:05:32.656Z,15.35
2023-02-21T10:10:32.596Z,15.68
2023-02-21T10:15:32.523Z,16.82
2023-02-21T10:20:32.465Z,17.19
2023-02-21T10:25:32.408Z,18.47
2023-02-21T10:30:32.436Z,19.36
2023-02-21T10:35:32.264Z,21.01
2023-02-21T10:40:32.202Z,21.72
2023-02-21T10:45:32.129Z,20.58
2023-02-21T10:50:32.071Z,19.55
2023-02-21T10:55:33.506Z,19.33
2023-02-21T11:00:31.950Z,17.79
2023-02-21T11:05:31.871Z,18.95
2023-02-21T11:10:31.820Z,20.36
2023-02-21T11:15:31.769Z,21.46
2023-02-21T11:20:31.696Z,20.59
2023-02-21T11:25:31.620Z,19.20
2023-02-21T11:30:31.615Z,19.79
2023-02-21T11:35:31.494Z,20.37
2023-02-21T11:40:31.440Z,19.79
2023-02-21T11:45:31.378Z,20.00
2023-02-21T11:50:31.317Z,20.18
2023-02-21T11:55:31.237Z,19.07
2023-02-21T12:00:31.181Z,18.15
2023-02-21T12:05:31.195Z,17.34
2023-02-21T12:10:31.043Z,17.08
2023-02-21T12:15:31.021Z,15.82
2023-02-21T12:20:30.925Z,15.68
2023-02-21T12:25:30.844Z,15.43
2023-02-21T12:30:30.874Z,15.30
2023-02-21T12:35:30.747Z,15.23
2023-02-21T12:40:30.657Z,15.18
2023-02-21T12:45:30.585Z,15.24
2023-02-21T12:50:33.224Z,15.54
2023-02-21T12:55:30.474Z,15.61
2023-02-21T13:00:30.399Z,15.62
2023-02-21T13:05:30.324Z,15.77
2023-02-21T13:10:30.261Z,15.98
2023-02-21T13:15:30.188Z,15.91
2023-02-21T13:20:30.131Z,16.04
2023-02-21T13:25:30.055Z,16.19
2023-02-21T13:30:30.143Z,16.16
2023-02-21T13:35:29.926Z,16.01
2023-02-21T13:40:29.872Z,15.88
2023-02-21T13:45:29.795Z,15.80
2023-02-21T13:50:29.739Z,15.55
2023-02-21T13:55:29.670Z,15.39
2023-02-21T14:00:29.640Z,15.21
2023-02-21T14:05:29.532Z,14.98
2023-02-21T14:10:29.475Z,14.87
2023-02-21T14:15:29.397Z,14.81
2023-02-21T14:20:29.347Z,14.70
2023-02-21T14:25:29.264Z,14.63
2023-02-21T14:30:29.209Z,14.53
2023-02-21T14:35:29.130Z,14.50
2023-02-21T14:40:29.074Z,14.29
2023-02-21T14:45:29.021Z,14.18
2023-02-21T14:50:28.945Z,14.35
2023-02-21T14:55:28.874Z,14.37
2023-02-21T15:00:28.823Z,14.33
2023-02-21T15:05:28.753Z,14.32
2023-02-21T15:10:28.687Z,14.35
2023-02-21T15:15:28.642Z,14.40
2023-02-21T15:20:28.564Z,14.47
2023-02-21T15:25:28.488Z,14.47
2023-02-21T15:30:28.597Z,14.43
2023-02-21T15:35:28.355Z,14.35
2023-02-21T15:40:28.302Z,14.28
2023-02-21T15:45:28.230Z,14.15
2023-02-21T15:50:28.173Z,14.03
2023-02-21T15:55:28.102Z,13.78
2023-02-21T16:00:28.121Z,13.59
2023-02-21T16:05:27.979Z,13.41
2023-02-21T16:10:27.917Z,13.20
2023-02-21T16:15:27.901Z,13.00
2023-02-21T16:20:27.789Z,12.80
2023-02-21T16:25:27.721Z,12.57
2023-02-21T16:30:27.878Z,12.30
2023-02-21T16:35:27.596Z,12.12
2023-02-21T16:40:27.530Z,12.01
2023-02-21T16:45:27.461Z,11.88
2023-02-21T16:50:27.399Z,11.68
2023-02-21T16:55:27.327Z,11.45
2023-02-21T17:00:27.267Z,11.35
2023-02-21T17:05:27.202Z,11.27
2023-02-21T17:10:27.138Z,11.17
2023-02-21T17:15:27.079Z,11.07
2023-02-21T17:20:27.009Z,10.99
2023-02-21T17:25:26.933Z,10.93
2023-02-21T17:30:26.983Z,10.92
2023-02-21T17:35:26.803Z,10.98
2023-02-21T17:40:26.744Z,11.06
2023-02-21T17:45:26.678Z,11.16
2023-02-21T17:50:26.618Z,11.27
2023-02-21T17:55:26.574Z,11.36
2023-02-21T18:00:26.490Z,11.45
2023-02-21T18:05:26.421Z,11.50
2023-02-21T18:10:26.352Z,11.54
2023-02-21T18:15:26.279Z,11.55
2023-02-21T18:20:26.224Z,11.57
2023-02-21T18:25:26.152Z,11.59
2023-02-21T18:30:26.098Z,11.60
2023-02-21T18:35:26.029Z,11.60
2023-02-21T18:40:25.965Z,11.60
2023-02-21T18:45:25.892Z,11.63
2023-02-21T18:50:25.833Z,11.62
2023-02-21T18:55:25.774Z,11.59
2023-02-21T19:00:25.704Z,11.57
2023-02-21T19:05:25.632Z,11.57
2023-02-21T19:10:25.586Z,11.54
2023-02-21T19:15:25.498Z,11.52
2023-02-21T19:20:25.445Z,11.50
2023-02-21T19:25:25.371Z,11.44
2023-02-21T19:30:25.372Z,11.43
2023-02-21T19:35:25.238Z,11.37
2023-02-21T19:40:25.180Z,11.35
2023-02-21T19:45:25.188Z,11.33
2023-02-21T19:50:25.055Z,11.35
2023-02-21T19:55:24.976Z,11.32
2023-02-21T20:00:24.915Z,11.23
2023-02-21T20:05:24.845Z,11.10
2023-02-21T20:10:24.789Z,11.01
2023-02-21T20:15:24.717Z,10.99
2023-02-21T20:20:24.656Z,11.01
2023-02-21T20:25:24.589Z,10.98
2023-02-21T20:30:25.094Z,10.99
2023-02-21T20:35:24.451Z,11.04
2023-02-21T20:40:24.394Z,11.11
2023-02-21T20:45:24.321Z,11.18
2023-02-21T20:50:24.288Z,11.25
2023-02-21T20:55:24.195Z,11.27
2023-02-21T21:00:24.132Z,11.29
2023-02-21T21:05:24.058Z,11.29
2023-02-21T21:10:24.009Z,11.30
2023-02-21T21:15:23.930Z,11.32
2023-02-21T21:20:23.887Z,11.30
2023-02-21T21:25:23.799Z,11.30
2023-02-21T21:30:23.954Z,11.27
2023-02-21T21:35:23.821Z,11.17
2023-02-21T21:40:23.861Z,11.13
2023-02-21T21:45:25.097Z,11.07
2023-02-21T21:50:23.481Z,11.01
2023-02-21T21:55:23.417Z,10.95
2023-02-21T22:00:23.353Z,10.92
2023-02-21T22:05:23.277Z,10.92
2023-02-21T22:10:23.218Z,10.89
2023-02-21T22:15:23.148Z,10.91
2023-02-21T22:20:23.085Z,10.88
2023-02-21T22:25:23.013Z,10.88
2023-02-21T22:30:23.108Z,10.89
2023-02-21T22:35:22.885Z,10.85
2023-02-21T22:40:22.824Z,10.83
2023-02-21T22:45:22.748Z,10.80
2023-02-21T22:50:22.705Z,10.78
2023-02-21T22:55:22.614Z,10.77
2023-02-21T23:00:22.563Z,10.78
2023-02-21T23:05:22.481Z,10.74
2023-02-21T23:10:22.422Z,10.71
2023-02-21T23:15:22.361Z,10.63
2023-02-21T23:20:22.327Z,10.63
2023-02-21T23:25:22.217Z,10.62
2023-02-21T23:30:22.197Z,10.60
2023-02-21T23:35:22.089Z,10.55
2023-02-21T23:40:22.032Z,10.58
2023-02-21T23:45:21.960Z,10.55
2023-02-21T23:50:21.906Z,10.53
2023-02-21T23:55:21.836Z,10.56
